Time;durP1;ratioP1;P1;durP2;ratioP2;P2;SDS_P1;SDS_P2;PMS_P1;PMS_P2;Temp;Humidity;BMP_temperature;BMP_pressure;BME280_temperature;BME280_humidity;BME280_pressure;Samples;Min_cycle;Max_cycle;Signal;HPM_P1;HPM_P2
2022/07/29 00:00:53;;;;;;;;;;;;;;;16.54;61.15;98702.32;105906;1282;23447;-88
2022/07/29 00:03:22;;;;;;;;;;;;;;;16.52;61.18;98705.19;105251;1282;124202;-88
2022/07/29 00:05:48;;;;;;;;;;;;;;;16.49;60.59;98701.23;105919;1282;24112;-88
2022/07/29 00:08:16;;;;;;;;;;;;;;;16.48;60.80;98706.35;105878;1284;23214;-89
2022/07/29 00:10:42;;;;;;;;;;;;;;;16.47;60.71;98704.59;105876;1282;124104;-88
2022/07/29 00:13:08;;;;;;;;;;;;;;;16.44;60.68;98708.48;105910;1282;23368;-88
2022/07/29 00:15:37;;;;;;;;;;;;;;;16.42;60.82;98702.73;105742;1284;123971;-89
2022/07/29 00:18:03;;;;;;;;;;;;;;;16.41;60.83;98707.45;105882;1282;25344;-88
2022/07/29 00:20:29;;;;;;;;;;;;;;;16.40;60.59;98706.69;105665;1284;22553;-89
2022/07/29 00:22:56;;;;;;;;;;;;;;;16.40;60.38;98707.67;105531;1284;124093;-91
2022/07/29 00:25:24;;;;;;;;;;;;;;;16.40;60.78;98711.57;105995;1282;22689;-89
2022/07/29 00:27:55;;;;;;;;;;;;;;;16.41;60.57;98708.44;105762;1282;124368;-89
2022/07/29 00:30:24;;;;;;;;;;;;;;;16.42;60.63;98703.27;105487;1282;22655;-90
2022/07/29 00:32:50;;;;;;;;;;;;;;;16.42;60.27;98707.28;105799;1282;124257;-90
2022/07/29 00:37:59;;;;;;;;;;;;;;;16.45;60.32;98711.29;105882;1283;22537;-89
2022/07/29 00:40:25;;;;;;;;;;;;;;;16.47;60.41;98714.48;105566;1284;124140;-89
2022/07/29 00:42:59;;;;;;;;;;;;;;;16.48;60.42;98713.22;106009;1282;23356;-90
2022/07/29 00:45:25;;;;;;;;;;;;;;;16.48;60.47;98706.67;105219;1286;124255;-88
2022/07/29 00:47:51;;;;;;;;;;;;;;;16.48;60.42;98704.70;105477;1283;25265;-88
2022/07/29 00:50:18;;;;;;;;;;;;;;;16.48;60.50;98704.05;106090;1282;22578;-89
2022/07/29 00:52:51;;;;;;;;;;;;;;;16.47;60.44;98699.64;106166;1282;124015;-88
2022/07/29 00:55:18;;;;;;;;;;;;;;;16.44;60.46;98694.91;105970;1281;25422;-87
2022/07/29 00:57:52;;;;;;;;;;;;;;;16.43;60.47;98690.19;105769;1282;124010;-87
2022/07/29 01:00:20;;;;;;;;;;;;;;;16.42;60.49;98693.70;105839;1284;22557;-87
2022/07/29 01:02:50;;;;;;;;;;;;;;;16.43;60.62;98688.77;105938;1282;124609;-87
2022/07/29 01:05:19;;;;;;;;;;;;;;;16.42;60.40;98686.23;106056;1284;24609;-87
2022/07/29 01:07:47;;;;;;;;;;;;;;;16.40;60.59;98682.49;105935;1282;22553;-86
2022/07/29 01:10:17;;;;;;;;;;;;;;;16.39;60.43;98682.17;105339;1284;124350;-87
2022/07/29 01:12:44;;;;;;;;;;;;;;;16.38;60.67;98685.90;105891;1282;25333;-87
2022/07/29 01:15:11;;;;;;;;;;;;;;;16.37;60.73;98693.23;106132;1282;124162;-87
2022/07/29 01:17:37;;;;;;;;;;;;;;;16.36;60.69;98688.05;105831;1282;23410;-87
2022/07/29 01:20:18;;;;;;;;;;;;;;;16.36;60.69;98685.20;105938;1282;22676;-87
2022/07/29 01:22:53;;;;;;;;;;;;;;;16.36;60.92;98679.88;106006;1282;124091;-86
2022/07/29 01:25:24;;;;;;;;;;;;;;;16.35;60.95;98677.40;105928;1282;32466;-87
2022/07/29 01:28:03;;;;;;;;;;;;;;;16.36;60.78;98674.75;105897;1282;124313;-89
2022/07/29 01:30:31;;;;;;;;;;;;;;;16.35;60.81;98675.58;105858;1282;25501;-86
2022/07/29 01:33:04;;;;;;;;;;;;;;;16.35;61.02;98674.42;105936;1282;124297;-86
2022/07/29 01:35:47;;;;;;;;;;;;;;;16.36;60.90;98672.17;105805;1282;25309;-86
2022/07/29 01:38:19;;;;;;;;;;;;;;;16.36;60.86;98673.33;105789;1282;22842;-86
2022/07/29 01:40:54;;;;;;;;;;;;;;;16.34;61.02;98673.54;106078;1282;124058;-87
2022/07/29 01:43:23;;;;;;;;;;;;;;;16.32;61.14;98678.83;105942;1282;22535;-86
2022/07/29 01:46:00;;;;;;;;;;;;;;;16.31;60.97;98678.83;105397;1282;124735;-87
2022/07/29 01:48:27;;;;;;;;;;;;;;;16.30;61.05;98678.77;105857;1282;22684;-86
2022/07/29 01:51:02;;;;;;;;;;;;;;;16.30;61.01;98680.21;105661;1283;124158;-86
2022/07/29 01:53:35;;;;;;;;;;;;;;;16.29;61.04;98678.84;106120;1282;22740;-87
2022/07/29 01:56:02;;;;;;;;;;;;;;;16.27;61.22;98685.05;105895;1282;30735;-87
2022/07/29 01:58:31;;;;;;;;;;;;;;;16.24;61.29;98684.27;106081;1282;124016;-86
2022/07/29 02:01:16;;;;;;;;;;;;;;;16.22;61.30;98679.38;105883;1282;22597;-86
2022/07/29 02:03:44;;;;;;;;;;;;;;;16.19;61.21;98673.84;106119;1282;124590;-86
2022/07/29 02:06:11;;;;;;;;;;;;;;;16.17;61.39;98672.91;106229;1282;22547;-86
2022/07/29 02:08:40;;;;;;;;;;;;;;;16.15;61.31;98668.73;106380;1284;22549;-87
2022/07/29 02:11:08;;;;;;;;;;;;;;;16.13;61.53;98667.42;106036;1282;124032;-86
2022/07/29 02:13:37;;;;;;;;;;;;;;;16.09;61.39;98665.39;105815;1282;24268;-86
2022/07/29 02:16:06;;;;;;;;;;;;;;;16.05;61.25;98667.31;105796;1282;124186;-87
2022/07/29 02:18:37;;;;;;;;;;;;;;;16.02;61.43;98668.64;105975;1282;22583;-88
2022/07/29 02:21:05;;;;;;;;;;;;;;;16.00;61.63;98663.90;106030;1282;124391;-86
2022/07/29 02:23:32;;;;;;;;;;;;;;;15.96;61.99;98657.83;106467;1282;25228;-85
2022/07/29 02:26:02;;;;;;;;;;;;;;;15.93;61.81;98656.39;106485;1282;22721;-87
2022/07/29 02:28:34;;;;;;;;;;;;;;;15.90;62.06;98653.15;105790;1282;124690;-86
2022/07/29 02:31:01;;;;;;;;;;;;;;;15.88;62.13;98645.84;106233;1282;22723;-86
2022/07/29 02:33:30;;;;;;;;;;;;;;;15.86;62.41;98643.27;106037;1282;124444;-85
2022/07/29 02:35:58;;;;;;;;;;;;;;;15.85;62.29;98638.05;105921;1282;26495;-86
2022/07/29 02:41:13;;;;;;;;;;;;;;;15.82;62.32;98640.25;105845;1282;124159;-86
2022/07/29 02:43:43;;;;;;;;;;;;;;;15.80;62.31;98642.27;106012;1282;23282;-87
2022/07/29 02:46:13;;;;;;;;;;;;;;;15.78;62.40;98648.70;106159;1282;125000;-86
2022/07/29 02:48:44;;;;;;;;;;;;;;;15.76;62.40;98640.56;106029;1282;23342;-86
2022/07/29 02:51:15;;;;;;;;;;;;;;;15.74;62.35;98637.91;106399;1282;124950;-86
2022/07/29 02:53:44;;;;;;;;;;;;;;;15.72;62.55;98630.38;106485;1282;24329;-86
2022/07/29 02:56:14;;;;;;;;;;;;;;;15.69;62.92;98626.92;106097;1282;25497;-87
2022/07/29 02:58:42;;;;;;;;;;;;;;;15.68;62.84;98628.23;105684;1282;124353;-86
2022/07/29 03:01:13;;;;;;;;;;;;;;;15.67;62.90;98627.90;105984;1282;22585;-86
2022/07/29 03:03:42;;;;;;;;;;;;;;;15.65;62.75;98631.98;105963;1282;124079;-86
2022/07/29 03:06:08;;;;;;;;;;;;;;;15.64;62.75;98628.51;105732;1285;22595;-87
2022/07/29 03:08:35;;;;;;;;;;;;;;;15.63;62.78;98633.13;106007;1282;22599;-87
2022/07/29 03:11:01;;;;;;;;;;;;;;;15.61;63.07;98630.98;105979;1282;124033;-86
2022/07/29 03:13:29;;;;;;;;;;;;;;;15.59;62.89;98637.18;106355;1282;25405;-86
2022/07/29 03:15:55;;;;;;;;;;;;;;;15.57;63.16;98635.86;106168;1282;124150;-87
2022/07/29 03:18:22;;;;;;;;;;;;;;;15.56;63.41;98635.48;106024;1282;25316;-86
2022/07/29 03:20:48;;;;;;;;;;;;;;;15.55;63.67;98638.02;105929;1282;124185;-86
2022/07/29 03:23:18;;;;;;;;;;;;;;;15.54;63.49;98639.32;105916;1282;25522;-88
2022/07/29 03:25:44;;;;;;;;;;;;;;;15.52;63.48;98645.57;106256;1282;24374;-86
2022/07/29 03:28:10;;;;;;;;;;;;;;;15.51;63.53;98643.71;106085;1282;124074;-86
2022/07/29 03:30:37;;;;;;;;;;;;;;;15.49;63.60;98643.05;106260;1282;24378;-87
2022/07/29 03:33:03;;;;;;;;;;;;;;;15.48;63.71;98645.18;106241;1282;124618;-86
2022/07/29 03:35:31;;;;;;;;;;;;;;;15.48;63.67;98653.92;106315;1282;22705;-87
2022/07/29 03:37:57;;;;;;;;;;;;;;;15.50;63.75;98656.61;106386;1282;22557;-87
2022/07/29 03:40:35;;;;;;;;;;;;;;;15.55;63.93;98655.58;106040;1282;124575;-87
2022/07/29 03:43:02;;;;;;;;;;;;;;;15.59;64.02;98652.61;106167;1282;25326;-87
2022/07/29 03:45:29;;;;;;;;;;;;;;;15.63;64.08;98648.44;105839;1282;124311;-88
2022/07/29 03:47:59;;;;;;;;;;;;;;;15.66;63.96;98649.70;106208;1282;25399;-86
2022/07/29 03:50:25;;;;;;;;;;;;;;;15.66;64.26;98649.60;106123;1282;22533;-88
2022/07/29 03:52:51;;;;;;;;;;;;;;;15.64;64.36;98647.77;105848;1282;124534;-88
2022/07/29 03:55:17;;;;;;;;;;;;;;;15.63;64.28;98653.83;106062;1282;25375;-88
2022/07/29 03:57:44;;;;;;;;;;;;;;;15.62;64.41;98657.61;105726;1282;124563;-86
2022/07/29 04:00:25;;;;;;;;;;;;;;;15.64;64.52;98660.47;105906;1282;24653;-89
2022/07/29 04:02:52;;;;;;;;;;;;;;;15.63;64.49;98659.05;105981;1282;124373;-89
2022/07/29 04:05:18;;;;;;;;;;;;;;;15.62;64.58;98656.30;105896;1282;22542;-89
2022/07/29 04:07:45;;;;;;;;;;;;;;;15.62;64.84;98660.09;105915;1284;22573;-86
2022/07/29 04:10:11;;;;;;;;;;;;;;;15.62;64.86;98658.05;105903;1282;124198;-87
2022/07/29 04:12:37;;;;;;;;;;;;;;;15.63;64.66;98654.92;105989;1283;22551;-86
2022/07/29 04:15:04;;;;;;;;;;;;;;;15.63;64.56;98655.96;105865;1282;124823;-86
2022/07/29 04:17:30;;;;;;;;;;;;;;;15.65;64.77;98648.13;106074;1283;25300;-85
2022/07/29 04:19:56;;;;;;;;;;;;;;;15.66;65.03;98645.82;106089;1282;22560;-86
2022/07/29 04:22:22;;;;;;;;;;;;;;;15.67;64.74;98643.77;105932;1282;124196;-86
2022/07/29 04:24:48;;;;;;;;;;;;;;;15.68;64.93;98639.66;105955;1282;24238;-86
2022/07/29 04:27:15;;;;;;;;;;;;;;;15.69;64.49;98639.77;105848;1282;125211;-86
2022/07/29 04:29:41;;;;;;;;;;;;;;;15.71;64.72;98638.90;106237;1282;23488;-86
2022/07/29 04:32:07;;;;;;;;;;;;;;;15.74;64.62;98641.44;106280;1282;23340;-86
2022/07/29 04:34:33;;;;;;;;;;;;;;;15.80;64.59;98647.38;106080;1282;124405;-85
2022/07/29 04:36:59;;;;;;;;;;;;;;;15.85;64.63;98644.52;106121;1282;22520;-85
2022/07/29 04:39:25;;;;;;;;;;;;;;;15.93;64.66;98645.56;105899;1282;124193;-85
2022/07/29 04:41:51;;;;;;;;;;;;;;;16.00;64.76;98645.51;106253;1282;22537;-85
2022/07/29 04:44:17;;;;;;;;;;;;;;;16.03;64.15;98645.79;106023;1282;22555;-85
2022/07/29 04:46:44;;;;;;;;;;;;;;;16.07;64.35;98653.63;106078;1282;124057;-85
2022/07/29 04:49:10;;;;;;;;;;;;;;;16.11;64.23;98660.23;106042;1282;24329;-86
2022/07/29 04:51:37;;;;;;;;;;;;;;;16.15;64.28;98653.30;106029;1282;124070;-85
2022/07/29 04:54:03;;;;;;;;;;;;;;;16.20;64.48;98651.20;106299;1282;22553;-85
2022/07/29 04:56:29;;;;;;;;;;;;;;;16.25;64.59;98646.58;106263;1282;26578;-85
2022/07/29 04:58:56;;;;;;;;;;;;;;;16.30;64.33;98640.02;106059;1282;124398;-85
2022/07/29 05:01:22;;;;;;;;;;;;;;;16.34;63.97;98635.28;105992;1282;22560;-85
2022/07/29 05:03:48;;;;;;;;;;;;;;;16.38;64.24;98629.01;106098;1282;124016;-85
2022/07/29 05:06:14;;;;;;;;;;;;;;;16.41;63.76;98632.30;106186;1282;22694;-85
2022/07/29 05:08:40;;;;;;;;;;;;;;;16.46;63.81;98634.77;106141;1282;23371;-85
2022/07/29 05:11:06;;;;;;;;;;;;;;;16.49;63.68;98637.17;106123;1282;123775;-85
2022/07/29 05:13:33;;;;;;;;;;;;;;;16.55;63.57;98637.48;106123;1282;24395;-85
2022/07/29 05:15:59;;;;;;;;;;;;;;;16.59;63.96;98634.55;105922;1282;123917;-85
2022/07/29 05:18:25;;;;;;;;;;;;;;;16.65;63.93;98633.33;105990;1282;25367;-86
2022/07/29 05:20:51;;;;;;;;;;;;;;;16.69;63.63;98622.64;105788;1282;124339;-85
2022/07/29 05:23:17;;;;;;;;;;;;;;;16.74;62.87;98628.19;106139;1282;25487;-86
2022/07/29 05:25:43;;;;;;;;;;;;;;;16.78;62.86;98628.50;105950;1282;22657;-85
2022/07/29 05:28:10;;;;;;;;;;;;;;;16.85;62.88;98632.00;106093;1282;124050;-86
2022/07/29 05:30:36;;;;;;;;;;;;;;;16.92;62.89;98634.95;106240;1282;25241;-85
2022/07/29 05:33:02;;;;;;;;;;;;;;;16.98;62.79;98637.06;105872;1282;124654;-86
2022/07/29 05:35:28;;;;;;;;;;;;;;;17.04;62.71;98631.80;105954;1283;22541;-85
2022/07/29 05:37:54;;;;;;;;;;;;;;;17.12;62.62;98631.16;105905;1284;22618;-86
2022/07/29 05:40:21;;;;;;;;;;;;;;;17.18;62.26;98627.49;106019;1284;124285;-86
2022/07/29 05:42:47;;;;;;;;;;;;;;;17.24;62.05;98627.57;106237;1284;23235;-86
2022/07/29 05:45:13;;;;;;;;;;;;;;;17.31;61.83;98625.77;105561;1284;124128;-86
2022/07/29 05:47:39;;;;;;;;;;;;;;;17.38;61.81;98629.13;105641;1282;22552;-86
2022/07/29 05:50:06;;;;;;;;;;;;;;;17.46;61.93;98630.67;105819;1282;22710;-86
2022/07/29 05:52:32;;;;;;;;;;;;;;;17.54;61.94;98634.41;105541;1284;124352;-86
2022/07/29 05:54:58;;;;;;;;;;;;;;;17.60;61.69;98633.83;105675;1282;25246;-85
2022/07/29 05:57:24;;;;;;;;;;;;;;;17.66;61.59;98634.73;105620;1282;124218;-85
2022/07/29 05:59:51;;;;;;;;;;;;;;;17.73;61.55;98635.98;105926;1282;22785;-85
2022/07/29 06:02:17;;;;;;;;;;;;;;;17.81;61.74;98640.38;105218;1282;22627;-88
2022/07/29 06:04:44;;;;;;;;;;;;;;;17.90;61.47;98640.01;105346;1282;124167;-85
2022/07/29 06:07:20;;;;;;;;;;;;;;;17.97;61.39;98641.31;105561;1284;24318;-93
2022/07/29 06:09:46;;;;;;;;;;;;;;;18.05;61.21;98647.27;105795;1282;124177;-86
2022/07/29 06:12:12;;;;;;;;;;;;;;;18.12;61.05;98644.01;105967;1282;22715;-87
2022/07/29 06:14:39;;;;;;;;;;;;;;;18.20;61.19;98644.09;105997;1282;22578;-88
2022/07/29 06:17:05;;;;;;;;;;;;;;;18.29;61.10;98643.23;105968;1282;123816;-87
2022/07/29 06:19:46;;;;;;;;;;;;;;;18.38;61.06;98644.84;105864;1282;22579;-87
2022/07/29 06:22:12;;;;;;;;;;;;;;;18.47;60.67;98640.23;105793;1282;124534;-88
2022/07/29 06:24:41;;;;;;;;;;;;;;;18.56;60.43;98638.36;105912;1282;22583;-86
2022/07/29 06:27:07;;;;;;;;;;;;;;;18.65;60.52;98640.58;105961;1282;124337;-88
2022/07/29 06:29:33;;;;;;;;;;;;;;;18.75;60.67;98637.63;105985;1282;25530;-88
2022/07/29 06:31:59;;;;;;;;;;;;;;;18.86;60.55;98637.33;105854;1282;23923;-87
2022/07/29 06:34:25;;;;;;;;;;;;;;;18.96;60.51;98639.69;105812;1282;124452;-89
2022/07/29 06:36:52;;;;;;;;;;;;;;;19.06;60.40;98639.17;105675;1282;22567;-87
2022/07/29 06:39:18;;;;;;;;;;;;;;;19.16;59.99;98637.81;105645;1282;124123;-85
2022/07/29 06:41:49;;;;;;;;;;;;;;;19.25;59.59;98637.91;106679;1282;22555;-82
2022/07/29 06:44:15;;;;;;;;;;;;;;;19.33;59.28;98638.84;105828;1282;24219;-83
2022/07/29 06:46:56;;;;;;;;;;;;;;;19.45;59.45;98639.88;106105;1282;124009;-83
2022/07/29 06:49:24;;;;;;;;;;;;;;;19.57;59.39;98636.05;105991;1282;23391;-83
2022/07/29 06:51:50;;;;;;;;;;;;;;;19.69;58.95;98636.86;106258;1282;124000;-82
2022/07/29 06:54:16;;;;;;;;;;;;;;;19.81;58.71;98635.23;106042;1282;23197;-82
2022/07/29 06:56:43;;;;;;;;;;;;;;;19.94;58.65;98636.26;106119;1282;25433;-82
2022/07/29 06:59:10;;;;;;;;;;;;;;;20.10;58.68;98636.36;106026;1282;124072;-82
2022/07/29 07:01:37;;;;;;;;;;;;;;;20.28;58.40;98635.94;105938;1282;22575;-83
2022/07/29 07:04:03;;;;;;;;;;;;;;;20.49;58.42;98630.79;105704;1282;124044;-85
2022/07/29 07:06:30;;;;;;;;;;;;;;;20.67;58.02;98631.01;105839;1284;25317;-82
2022/07/29 07:08:56;;;;;;;;;;;;;;;20.81;57.54;98631.52;105865;1284;124158;-85
2022/07/29 07:11:22;;;;;;;;;;;;;;;20.92;56.96;98624.92;106135;1282;25367;-84
2022/07/29 07:14:03;;;;;;;;;;;;;;;21.02;56.95;98628.32;105691;1284;25425;-85
2022/07/29 07:16:29;;;;;;;;;;;;;;;21.11;57.44;98622.35;105759;1284;124377;-84
2022/07/29 07:18:55;;;;;;;;;;;;;;;21.20;56.60;98617.79;105630;1284;22570;-87
2022/07/29 07:21:21;;;;;;;;;;;;;;;21.29;56.33;98613.88;105546;1284;125232;-86
2022/07/29 07:23:47;;;;;;;;;;;;;;;21.28;55.75;98614.06;105562;1284;22569;-87
2022/07/29 07:26:13;;;;;;;;;;;;;;;21.22;55.87;98616.17;105775;1282;22623;-87
2022/07/29 07:28:39;;;;;;;;;;;;;;;21.23;55.82;98618.72;105700;1284;124509;-86
2022/07/29 07:31:05;;;;;;;;;;;;;;;21.29;56.15;98615.98;106142;1282;24299;-87
2022/07/29 07:33:32;;;;;;;;;;;;;;;21.38;55.77;98616.11;105978;1282;124489;-86
2022/07/29 07:35:58;;;;;;;;;;;;;;;21.48;56.16;98618.05;106270;1282;22539;-86
2022/07/29 07:38:24;;;;;;;;;;;;;;;21.58;55.85;98624.69;107103;1282;23217;-85
2022/07/29 07:40:50;;;;;;;;;;;;;;;21.68;55.27;98621.25;107070;1281;124504;-84
2022/07/29 07:43:16;;;;;;;;;;;;;;;21.78;55.30;98621.88;106493;1283;23908;-84
2022/07/29 07:45:42;;;;;;;;;;;;;;;21.89;55.26;98622.01;106813;1282;124068;-86
2022/07/29 07:48:10;;;;;;;;;;;;;;;22.00;54.87;98621.50;106868;1282;25422;-84
2022/07/29 07:50:51;;;;;;;;;;;;;;;22.11;54.40;98622.60;105936;1282;124752;-82
2022/07/29 07:53:17;;;;;;;;;;;;;;;22.23;54.31;98622.98;107629;1282;26624;-83
2022/07/29 07:55:43;;;;;;;;;;;;;;;22.35;54.13;98623.77;107831;1282;22707;-83
2022/07/29 07:58:10;;;;;;;;;;;;;;;22.45;53.65;98621.18;105705;1284;124185;-83
2022/07/29 08:00:36;;;;;;;;;;;;;;;22.56;53.32;98617.38;106126;1282;24442;-84
2022/07/29 08:03:02;;;;;;;;;;;;;;;22.69;53.11;98616.13;106357;1283;124823;-83
2022/07/29 08:05:28;;;;;;;;;;;;;;;22.80;52.42;98612.76;106056;1282;22597;-83
2022/07/29 08:07:54;;;;;;;;;;;;;;;22.86;52.18;98616.40;105941;1282;24324;-83
2022/07/29 08:13:06;;;;;;;;;;;;;;;23.02;51.67;98611.60;106323;1282;25636;-81
2022/07/29 08:15:32;;;;;;;;;;;;;;;23.13;51.34;98613.09;105776;1284;124679;-83
2022/07/29 08:17:59;;;;;;;;;;;;;;;23.21;50.63;98607.29;106112;1282;22553;-86
2022/07/29 08:20:40;;;;;;;;;;;;;;;23.32;51.33;98613.41;106458;1282;25375;-83
2022/07/29 08:23:08;;;;;;;;;;;;;;;23.38;50.85;98612.20;105851;1282;124184;-83
2022/07/29 08:25:41;;;;;;;;;;;;;;;23.46;50.92;98613.73;106197;1282;22551;-84
2022/07/29 08:28:07;;;;;;;;;;;;;;;23.55;50.77;98613.73;105687;1282;123921;-83
2022/07/29 08:30:34;;;;;;;;;;;;;;;23.62;50.22;98610.77;105685;1282;22566;-86
2022/07/29 08:33:01;;;;;;;;;;;;;;;23.70;50.36;98611.08;106422;1282;124419;-84
2022/07/29 08:35:41;;;;;;;;;;;;;;;23.83;50.37;98611.61;105790;1284;24323;-85
2022/07/29 08:38:07;;;;;;;;;;;;;;;23.95;49.56;98610.16;106184;1282;23220;-85
2022/07/29 08:40:33;;;;;;;;;;;;;;;23.97;48.77;98609.46;105696;1282;124672;-84
2022/07/29 08:43:14;;;;;;;;;;;;;;;24.00;48.82;98616.11;106192;1282;22556;-83
2022/07/29 08:45:45;;;;;;;;;;;;;;;24.09;49.03;98620.55;105574;1284;124092;-83
2022/07/29 08:48:18;;;;;;;;;;;;;;;24.19;48.56;98618.98;105764;1282;22548;-84
2022/07/29 08:50:45;;;;;;;;;;;;;;;24.25;48.12;98616.73;105664;1282;22563;-85
2022/07/29 08:53:12;;;;;;;;;;;;;;;24.34;48.40;98617.60;105708;1284;124020;-83
2022/07/29 08:55:45;;;;;;;;;;;;;;;24.44;48.71;98614.13;105724;1284;24305;-81
2022/07/29 08:58:11;;;;;;;;;;;;;;;24.59;47.97;98609.51;105980;1282;124389;-82
2022/07/29 09:00:41;;;;;;;;;;;;;;;24.70;47.96;98606.11;105735;1283;22570;-86
2022/07/29 09:03:09;;;;;;;;;;;;;;;24.79;47.41;98602.63;105929;1282;124207;-85
2022/07/29 09:05:35;;;;;;;;;;;;;;;24.88;47.01;98600.23;105883;1284;24327;-86
2022/07/29 09:08:01;;;;;;;;;;;;;;;24.96;46.67;98599.94;105696;1284;24437;-84
2022/07/29 09:10:28;;;;;;;;;;;;;;;25.12;46.80;98600.23;105700;1284;124306;-84
2022/07/29 09:12:54;;;;;;;;;;;;;;;25.25;46.41;98600.10;105929;1284;22684;-86
2022/07/29 09:15:20;;;;;;;;;;;;;;;25.34;45.84;98602.31;105493;1284;124307;-84
2022/07/29 09:17:48;;;;;;;;;;;;;;;25.41;45.54;98598.77;105825;1282;25686;-88
2022/07/29 09:20:24;;;;;;;;;;;;;;;25.50;45.77;98598.23;105875;1284;22544;-84
2022/07/29 09:22:52;;;;;;;;;;;;;;;25.58;45.45;98595.55;105623;1284;124266;-85
2022/07/29 09:25:33;;;;;;;;;;;;;;;25.64;45.31;98598.58;105862;1284;25404;-84
2022/07/29 09:28:26;;;;;;;;;;;;;;;25.75;44.76;98595.63;105605;1284;124089;-82
2022/07/29 09:30:55;;;;;;;;;;;;;;;25.83;44.86;98598.93;105800;1284;23084;-85
2022/07/29 09:33:22;;;;;;;;;;;;;;;25.87;44.48;98598.86;105789;1284;124350;-87
2022/07/29 09:36:02;;;;;;;;;;;;;;;25.90;44.70;98592.17;105884;1284;26611;-85
2022/07/29 09:38:28;;;;;;;;;;;;;;;25.99;44.67;98588.61;105791;1284;25317;-87
2022/07/29 09:41:10;;;;;;;;;;;;;;;26.17;44.77;98587.89;105800;1284;123724;-83
2022/07/29 09:43:36;;;;;;;;;;;;;;;26.26;44.64;98582.38;106077;1284;25373;-82
2022/07/29 09:46:12;;;;;;;;;;;;;;;26.28;44.12;98580.13;105675;1284;124067;-83
2022/07/29 09:48:38;;;;;;;;;;;;;;;26.34;44.22;98573.41;105652;1284;25257;-86
2022/07/29 09:51:06;;;;;;;;;;;;;;;26.47;44.45;98569.76;105744;1284;124399;-85
2022/07/29 09:53:34;;;;;;;;;;;;;;;26.63;44.42;98570.20;105714;1284;25235;-83
2022/07/29 09:56:00;;;;;;;;;;;;;;;26.77;44.12;98564.45;106049;1284;25186;-85
2022/07/29 09:58:26;;;;;;;;;;;;;;;26.88;43.84;98571.02;105762;1284;124570;-85
2022/07/29 10:00:54;;;;;;;;;;;;;;;26.96;43.49;98566.56;106006;1284;22563;-85
2022/07/29 10:03:21;;;;;;;;;;;;;;;26.98;43.30;98559.99;105839;1284;124315;-84
2022/07/29 10:06:04;;;;;;;;;;;;;;;27.02;43.14;98564.67;105706;1284;24555;-84
2022/07/29 10:08:31;;;;;;;;;;;;;;;27.05;42.82;98564.45;105859;1284;24222;-84
2022/07/29 10:11:11;;;;;;;;;;;;;;;27.14;43.20;98564.73;105793;1284;124374;-84
2022/07/29 10:13:52;;;;;;;;;;;;;;;27.27;42.98;98558.83;106048;1284;24317;-83
2022/07/29 10:16:32;;;;;;;;;;;;;;;27.37;42.76;98555.54;105400;1282;124141;-84
2022/07/29 10:19:00;;;;;;;;;;;;;;;27.43;42.19;98554.34;105333;1282;23918;-86
2022/07/29 10:21:26;;;;;;;;;;;;;;;27.46;41.94;98552.10;105368;1282;124672;-84
2022/07/29 10:23:57;;;;;;;;;;;;;;;27.48;41.69;98552.80;105627;1284;22753;-83
2022/07/29 10:26:23;;;;;;;;;;;;;;;27.53;42.15;98553.77;105587;1284;22540;-84
2022/07/29 10:28:49;;;;;;;;;;;;;;;27.69;42.30;98550.36;105475;1284;124420;-82
2022/07/29 10:31:21;;;;;;;;;;;;;;;27.88;41.73;98554.02;105533;1284;22552;-85
2022/07/29 10:34:01;;;;;;;;;;;;;;;28.06;41.38;98545.88;105691;1284;124543;-87
2022/07/29 10:36:53;;;;;;;;;;;;;;;28.29;41.87;98545.84;105896;1284;29934;-87
2022/07/29 10:39:25;;;;;;;;;;;;;;;28.51;41.58;98544.79;106034;1284;124312;-82
2022/07/29 10:41:54;;;;;;;;;;;;;;;28.70;40.94;98541.98;105805;1284;22570;-85
2022/07/29 10:44:22;;;;;;;;;;;;;;;28.83;40.21;98539.94;105703;1284;24313;-84
2022/07/29 10:46:48;;;;;;;;;;;;;;;28.98;40.16;98536.77;106060;1284;124644;-84
2022/07/29 10:49:19;;;;;;;;;;;;;;;29.14;40.02;98535.05;105737;1284;22871;-82
2022/07/29 10:51:55;;;;;;;;;;;;;;;29.19;39.26;98535.90;105679;1284;124099;-86
2022/07/29 10:54:35;;;;;;;;;;;;;;;29.11;38.87;98531.52;106152;1284;24275;-86
2022/07/29 10:57:06;;;;;;;;;;;;;;;29.09;39.16;98523.39;105758;1284;124131;-88
2022/07/29 10:59:33;;;;;;;;;;;;;;;29.14;39.09;98512.77;105762;1283;25250;-82
2022/07/29 11:01:59;;;;;;;;;;;;;;;29.18;39.23;98519.36;106088;1284;22547;-82
2022/07/29 11:04:39;;;;;;;;;;;;;;;29.27;39.13;98519.80;106131;1284;124036;-80
2022/07/29 11:07:05;;;;;;;;;;;;;;;29.34;39.17;98519.48;105662;1284;24297;-82
2022/07/29 11:09:31;;;;;;;;;;;;;;;29.37;39.11;98515.28;105647;1284;124764;-81
2022/07/29 11:11:57;;;;;;;;;;;;;;;29.46;38.78;98511.77;106298;1284;22613;-81
2022/07/29 11:14:37;;;;;;;;;;;;;;;29.57;39.05;98514.64;106009;1284;22548;-80
2022/07/29 11:17:05;;;;;;;;;;;;;;;29.67;38.58;98512.02;105754;1282;123854;-79
2022/07/29 11:19:46;;;;;;;;;;;;;;;29.64;38.18;98508.02;105893;1282;22560;-79
2022/07/29 11:22:30;;;;;;;;;;;;;;;29.38;38.06;98507.05;105552;1282;124002;-81
2022/07/29 11:25:10;;;;;;;;;;;;;;;29.04;38.52;98511.92;105867;1282;24312;-80
2022/07/29 11:27:39;;;;;;;;;;;;;;;28.84;39.72;98511.94;105674;1284;124142;-80
2022/07/29 11:30:05;;;;;;;;;;;;;;;28.70;39.72;98515.55;105967;1282;26505;-79
2022/07/29 11:32:38;;;;;;;;;;;;;;;28.58;39.82;98520.08;105695;1282;22534;-79
2022/07/29 11:35:14;;;;;;;;;;;;;;;28.53;40.17;98521.88;105853;1282;123889;-79
2022/07/29 11:37:40;;;;;;;;;;;;;;;28.60;40.06;98521.15;105629;1282;24335;-79
2022/07/29 11:40:06;;;;;;;;;;;;;;;28.74;40.75;98518.05;105762;1284;124212;-80
2022/07/29 11:42:35;;;;;;;;;;;;;;;28.91;41.00;98510.34;105917;1282;25411;-79
2022/07/29 11:45:05;;;;;;;;;;;;;;;28.98;40.22;98506.81;105546;1282;124571;-78
2022/07/29 11:47:32;;;;;;;;;;;;;;;29.04;39.95;98505.59;105544;1282;22551;-78
2022/07/29 11:49:59;;;;;;;;;;;;;;;29.10;39.48;98504.81;105977;1282;22576;-80
2022/07/29 11:52:37;;;;;;;;;;;;;;;29.29;40.18;98502.75;105801;1282;124282;-79
2022/07/29 11:55:04;;;;;;;;;;;;;;;29.58;39.91;98499.17;105284;1284;717220;-78
2022/07/29 11:57:31;;;;;;;;;;;;;;;29.84;39.45;98500.19;105732;1283;124409;-81
2022/07/29 11:59:57;;;;;;;;;;;;;;;30.12;38.80;98497.23;105891;1282;23966;-83
2022/07/29 12:02:23;;;;;;;;;;;;;;;30.31;37.98;98494.98;106160;1282;24236;-80
2022/07/29 12:04:54;;;;;;;;;;;;;;;30.43;37.00;98488.61;105610;1283;124131;-79
2022/07/29 12:07:34;;;;;;;;;;;;;;;30.52;37.57;98480.31;105588;1283;24405;-79
2022/07/29 12:10:01;;;;;;;;;;;;;;;30.62;37.34;98483.52;105687;1282;124109;-80
2022/07/29 12:12:27;;;;;;;;;;;;;;;30.67;36.65;98479.80;105739;1283;22557;-79
2022/07/29 12:14:55;;;;;;;;;;;;;;;30.74;36.87;98472.61;105148;1285;124545;-79
2022/07/29 12:17:47;;;;;;;;;;;;;;;30.87;37.24;98470.85;105660;1284;22631;-75
2022/07/29 12:20:22;;;;;;;;;;;;;;;31.00;36.23;98464.88;106010;1282;22548;-80
2022/07/29 12:22:49;;;;;;;;;;;;;;;31.08;36.41;98463.52;105839;1282;124545;-82
2022/07/29 12:25:16;;;;;;;;;;;;;;;31.16;36.11;98461.30;105884;1283;22583;-79
2022/07/29 12:27:45;;;;;;;;;;;;;;;31.24;35.78;98464.86;105962;1282;124412;-80
2022/07/29 12:30:13;;;;;;;;;;;;;;;31.33;36.29;98464.72;105707;1282;22539;-80
2022/07/29 12:32:41;;;;;;;;;;;;;;;31.39;35.15;98461.41;105580;1284;22535;-80
2022/07/29 12:35:21;;;;;;;;;;;;;;;31.44;35.33;98463.73;105659;1282;124490;-80
2022/07/29 12:37:48;;;;;;;;;;;;;;;31.49;35.22;98462.20;105777;1284;23179;-81
2022/07/29 12:40:16;;;;;;;;;;;;;;;31.59;35.63;98457.56;106085;1282;124758;-79
2022/07/29 12:43:02;;;;;;;;;;;;;;;31.66;35.24;98454.25;105526;1285;24313;-79
2022/07/29 12:45:29;;;;;;;;;;;;;;;31.72;34.93;98454.63;105628;1282;124823;-81
2022/07/29 12:47:55;;;;;;;;;;;;;;;31.84;34.61;98457.40;105970;1282;24412;-80
2022/07/29 12:50:21;;;;;;;;;;;;;;;31.96;34.47;98456.30;105981;1282;23900;-81